Mont-Tremblant, Canada
Current Conditions -  °F | °C
As of 5:00 AM on Sunday 23 Nov 2014 (Local Time) from CYMX Reporting Station
Moderate Fog Moderate Fog  
Wind Chill: 34°   Ceiling: 200
Heat Index: 37°   Visibility: 0.5mi
Dew Point: 36°   Wind: 5mph
Humidity: 93%   Direction: 240°WSW
Pressure: 29.95"   Gusts: NA
Location:  46.12°N, 74.6°W
Report Text: CYMX 231000Z 24004KT 200V280 1/2SM FG VV002 03/02 A2995 RMK FG8 VIS VRB 1/4-3/4 SLP147
Loading
Personal Weather Stations






























Interactive Weather Map New forecast layout! Learn more

10-Day Weather Forecast

Advertisements
Track Severe Weather on mobile